Time;durP1;ratioP1;P1;durP2;ratioP2;P2;SDS_P1;SDS_P2;PMS_P1;PMS_P2;Temp;Humidity;BMP_temperature;BMP_pressure;BME280_temperature;BME280_humidity;BME280_pressure;Samples;Min_cycle;Max_cycle;Signal;HPM_P1;HPM_P2
2023/05/23 00:00:03;;;;;;;24.02;13.80;;;14.80;99.90;;;;;;4937429;29;20086;-73
2023/05/23 00:02:37;;;;;;;22.25;14.70;;;14.80;99.90;;;;;;4937234;29;20054;-75
2023/05/23 00:05:06;;;;;;;22.33;13.52;;;14.80;99.90;;;;;;4937471;29;20440;-75
2023/05/23 00:07:32;;;;;;;23.73;14.50;;;14.80;99.90;;;;;;4918861;29;20051;-74
2023/05/23 00:09:58;;;;;;;21.98;13.85;;;14.90;99.90;;;;;;4935948;29;20063;-74
2023/05/23 00:12:24;;;;;;;19.38;12.20;;;14.90;99.90;;;;;;4924511;29;20047;-76
2023/05/23 00:14:52;;;;;;;22.08;13.93;;;14.90;99.90;;;;;;4934014;29;20039;-75
2023/05/23 00:17:18;;;;;;;19.98;13.02;;;14.70;99.90;;;;;;4936445;29;20028;-75
2023/05/23 00:19:47;;;;;;;19.40;12.55;;;14.70;99.90;;;;;;4934806;29;20059;-76
2023/05/23 00:22:14;;;;;;;20.73;13.88;;;14.70;99.90;;;;;;4934525;29;20028;-74
2023/05/23 00:24:40;;;;;;;21.35;14.23;;;14.80;99.90;;;;;;4934232;29;20172;-75
2023/05/23 00:27:06;;;;;;;19.58;12.95;;;14.80;99.90;;;;;;4936100;29;20461;-75
2023/05/23 00:29:32;;;;;;;21.27;13.63;;;14.80;99.90;;;;;;4918724;29;20028;-73
2023/05/23 00:31:57;;;;;;;16.00;10.02;;;14.80;99.90;;;;;;4935353;29;20024;-74
2023/05/23 00:34:23;;;;;;;18.63;12.60;;;14.80;99.90;;;;;;4935493;29;20357;-74
2023/05/23 00:36:49;;;;;;;22.20;12.77;;;14.70;99.90;;;;;;4902748;29;20071;-74
2023/05/23 00:39:18;;;;;;;27.63;13.63;;;14.70;99.90;;;;;;4914741;29;20124;-75
2023/05/23 00:41:49;;;;;;;22.45;14.40;;;14.60;99.90;;;;;;4931592;29;20059;-75
2023/05/23 00:44:15;;;;;;;26.42;13.10;;;14.30;99.90;;;;;;4919127;29;20510;-75
2023/05/23 00:46:48;;;;;;;22.20;13.25;;;14.40;99.90;;;;;;4917838;29;20070;-76
2023/05/23 00:49:14;;;;;;;20.77;12.52;;;14.40;99.90;;;;;;4915195;29;20111;-75
2023/05/23 00:51:42;;;;;;;22.48;12.98;;;14.40;99.90;;;;;;4916275;29;20067;-76
2023/05/23 00:54:08;;;;;;;18.63;11.55;;;14.30;99.90;;;;;;4912861;29;20063;-76
2023/05/23 00:56:35;;;;;;;19.52;12.25;;;14.20;99.90;;;;;;4915100;29;20100;-76
2023/05/23 00:59:01;;;;;;;26.90;13.63;;;14.20;99.90;;;;;;4918160;29;20379;-76
2023/05/23 01:01:27;;;;;;;19.70;13.30;;;14.30;99.90;;;;;;4916782;29;20042;-76
2023/05/23 01:03:53;;;;;;;21.77;13.70;;;14.30;99.90;;;;;;4898253;29;20032;-76
2023/05/23 01:06:19;;;;;;;18.90;12.10;;;14.30;99.90;;;;;;4918373;29;20038;-76
2023/05/23 01:08:45;;;;;;;19.77;13.73;;;14.30;99.90;;;;;;4912421;29;20543;-76
2023/05/23 01:11:23;;;;;;;23.80;14.18;;;14.30;99.90;;;;;;4913665;29;20036;-77
2023/05/23 01:14:01;;;;;;;21.73;13.60;;;14.40;99.90;;;;;;4919540;29;20028;-76
2023/05/23 01:16:49;;;;;;;21.45;12.43;;;14.40;99.90;;;;;;4916716;29;20028;-76
2023/05/23 01:19:47;;;;;;;21.25;12.65;;;14.40;99.90;;;;;;4914041;29;20075;-75
2023/05/23 01:22:54;;;;;;;19.90;10.05;;;14.40;99.90;;;;;;4884464;29;20055;-76
2023/05/23 01:25:26;;;;;;;20.08;12.10;;;14.40;99.90;;;;;;4898116;29;20091;-77
2023/05/23 01:27:56;;;;;;;23.10;14.60;;;14.20;99.90;;;;;;4931607;29;20036;-76
2023/05/23 01:30:24;;;;;;;20.17;13.30;;;14.20;99.90;;;;;;4917617;29;20034;-76
2023/05/23 01:32:53;;;;;;;19.83;12.70;;;14.20;99.90;;;;;;4917171;29;20595;-76
2023/05/23 01:35:26;;;;;;;24.00;12.90;;;14.20;99.90;;;;;;4934596;29;20036;-76
2023/05/23 01:37:54;;;;;;;20.08;12.82;;;14.20;99.90;;;;;;4934822;29;20028;-76
2023/05/23 01:40:21;;;;;;;21.52;13.75;;;14.20;99.90;;;;;;4934379;29;20015;-76
2023/05/23 01:42:47;;;;;;;21.85;12.88;;;14.20;99.90;;;;;;4934727;29;20039;-76
2023/05/23 01:45:15;;;;;;;22.77;12.45;;;14.20;99.90;;;;;;4934557;29;20022;-76
2023/05/23 01:47:42;;;;;;;16.92;11.35;;;14.20;99.90;;;;;;4934318;29;20468;-76
2023/05/23 01:50:09;;;;;;;19.77;12.23;;;14.10;99.90;;;;;;4934119;29;20016;-76
2023/05/23 01:52:36;;;;;;;20.33;12.25;;;14.00;99.90;;;;;;4916888;29;20126;-75
2023/05/23 01:55:13;;;;;;;20.55;11.98;;;14.00;99.90;;;;;;4917449;29;20066;-75
2023/05/23 01:57:39;;;;;;;21.02;12.68;;;14.00;99.90;;;;;;4917266;29;20054;-76
2023/05/23 02:00:07;;;;;;;17.88;11.63;;;14.10;99.90;;;;;;4917190;29;20496;-76
2023/05/23 02:02:39;;;;;;;18.38;13.02;;;14.10;99.90;;;;;;4934154;29;20125;-76
2023/05/23 02:05:05;;;;;;;20.75;11.70;;;14.10;99.90;;;;;;4917126;29;20036;-76
2023/05/23 02:07:31;;;;;;;18.77;10.98;;;14.10;99.90;;;;;;4934224;29;20465;-76
2023/05/23 02:09:57;;;;;;;20.70;12.15;;;14.00;99.90;;;;;;4916849;29;20084;-76
2023/05/23 02:12:23;;;;;;;21.70;13.88;;;13.90;99.90;;;;;;4917069;29;20491;-76
2023/05/23 02:14:52;;;;;;;24.58;14.32;;;13.90;99.90;;;;;;4934183;29;20096;-74
2023/05/23 02:17:18;;;;;;;29.23;14.32;;;13.90;99.90;;;;;;4934229;29;20047;-75
2023/05/23 02:19:44;;;;;;;19.98;13.95;;;13.70;99.90;;;;;;4916983;29;20116;-74
2023/05/23 02:22:11;;;;;;;19.48;13.63;;;13.60;99.90;;;;;;4916721;29;20040;-75
2023/05/23 02:24:39;;;;;;;20.90;14.40;;;13.70;99.90;;;;;;4933852;29;20038;-75
2023/05/23 02:27:05;;;;;;;22.77;14.85;;;13.70;99.90;;;;;;4933762;29;20031;-75
2023/05/23 02:29:32;;;;;;;25.45;15.05;;;13.70;99.90;;;;;;4917127;29;20063;-75
2023/05/23 02:31:58;;;;;;;21.90;14.75;;;13.70;99.90;;;;;;4933790;29;20519;-75
2023/05/23 02:34:24;;;;;;;24.05;15.15;;;13.70;99.90;;;;;;4916898;29;20035;-75
2023/05/23 02:36:50;;;;;;;24.73;15.48;;;13.70;99.90;;;;;;4941365;29;20035;-74
2023/05/23 02:39:16;;;;;;;21.30;14.82;;;13.60;99.90;;;;;;4917032;29;20035;-76
2023/05/23 02:41:44;;;;;;;25.50;14.40;;;13.60;99.90;;;;;;4916414;29;20080;-75
2023/05/23 02:44:10;;;;;;;23.10;15.80;;;13.60;99.90;;;;;;4916909;29;20032;-76
2023/05/23 02:46:36;;;;;;;22.38;13.98;;;13.70;99.90;;;;;;4916480;29;20102;-75
2023/05/23 02:49:03;;;;;;;23.27;13.70;;;13.80;99.90;;;;;;4916500;29;20066;-75
2023/05/23 02:51:30;;;;;;;21.83;13.48;;;13.80;99.90;;;;;;4916623;29;20058;-76
2023/05/23 02:53:56;;;;;;;19.45;13.93;;;13.70;99.90;;;;;;4916387;29;20024;-75
2023/05/23 02:56:22;;;;;;;22.65;13.60;;;13.70;99.90;;;;;;4933808;29;20036;-75
2023/05/23 02:58:48;;;;;;;21.52;14.05;;;13.70;99.90;;;;;;4916623;29;20051;-75
2023/05/23 03:01:14;;;;;;;22.42;13.77;;;13.70;99.90;;;;;;4933844;29;20403;-76
2023/05/23 03:03:40;;;;;;;23.05;16.33;;;13.70;99.90;;;;;;4937053;29;20035;-76
2023/05/23 03:06:09;;;;;;;28.13;19.75;;;13.70;99.90;;;;;;4920454;29;20035;-76
2023/05/23 03:08:35;;;;;;;26.92;18.85;;;13.80;99.90;;;;;;4920043;29;20031;-76
2023/05/23 03:11:01;;;;;;;24.23;18.33;;;13.90;99.90;;;;;;4920044;29;20107;-76
2023/05/23 03:13:27;;;;;;;25.92;18.08;;;13.90;99.90;;;;;;4920148;29;20071;-76
2023/05/23 03:15:53;;;;;;;25.27;16.05;;;14.00;99.90;;;;;;4915295;29;20039;-76
2023/05/23 03:18:19;;;;;;;22.30;15.75;;;14.10;99.90;;;;;;4929205;29;20024;-76
2023/05/23 03:20:45;;;;;;;23.05;15.57;;;14.10;99.90;;;;;;4919852;29;20538;-75
2023/05/23 03:23:11;;;;;;;22.45;15.73;;;14.10;99.90;;;;;;4920027;29;20031;-76
2023/05/23 03:25:36;;;;;;;23.85;16.27;;;14.10;99.90;;;;;;4936706;29;20087;-76
2023/05/23 03:28:03;;;;;;;23.23;17.23;;;14.20;99.90;;;;;;4937193;29;20032;-75
2023/05/23 03:30:29;;;;;;;18.67;12.05;;;14.30;99.90;;;;;;4936862;29;20067;-76
2023/05/23 03:32:56;;;;;;;20.92;12.73;;;14.40;99.90;;;;;;4919657;29;20395;-76
2023/05/23 03:35:21;;;;;;;20.70;13.45;;;14.40;99.90;;;;;;4936686;29;20038;-75
2023/05/23 03:37:47;;;;;;;18.92;13.50;;;14.60;99.90;;;;;;4919971;29;20027;-76
2023/05/23 03:40:13;;;;;;;20.70;13.90;;;15.10;99.90;;;;;;4919527;29;20496;-75
2023/05/23 03:42:39;;;;;;;20.13;11.90;;;15.20;99.90;;;;;;4919803;29;20040;-75
2023/05/23 03:45:05;;;;;;;17.65;10.95;;;15.90;99.90;;;;;;4932776;29;20074;-75
2023/05/23 03:47:31;;;;;;;16.88;10.85;;;16.40;99.90;;;;;;4937568;29;20035;-75
2023/05/23 03:49:59;;;;;;;15.50;10.25;;;16.90;99.90;;;;;;4904739;29;20047;-75
2023/05/23 03:52:26;;;;;;;19.60;10.82;;;17.40;99.90;;;;;;4920352;29;20035;-75
2023/05/23 03:54:52;;;;;;;18.15;12.45;;;17.90;99.90;;;;;;4907604;29;20046;-76
2023/05/23 03:57:18;;;;;;;17.75;11.43;;;18.50;99.90;;;;;;4915223;29;20051;-76
2023/05/23 03:59:44;;;;;;;22.27;11.38;;;19.10;99.90;;;;;;4928679;29;20075;-76
2023/05/23 04:02:11;;;;;;;16.30;10.38;;;19.70;99.90;;;;;;4919250;29;20036;-76
2023/05/23 04:04:38;;;;;;;20.02;12.65;;;20.30;99.90;;;;;;4937226;29;20024;-76
2023/05/23 04:07:05;;;;;;;18.17;11.35;;;20.80;99.90;;;;;;4920322;29;20032;-76
2023/05/23 04:09:31;;;;;;;19.17;10.35;;;20.80;99.90;;;;;;4918633;29;20039;-77
2023/05/23 04:11:58;;;;;;;21.13;10.32;;;21.10;99.90;;;;;;4918239;29;20079;-77
2023/05/23 04:14:24;;;;;;;18.42;9.80;;;21.50;99.90;;;;;;4915050;29;20110;-77
2023/05/23 04:16:51;;;;;;;18.17;10.27;;;21.80;99.90;;;;;;4910345;29;20035;-77
2023/05/23 04:19:18;;;;;;;17.88;10.00;;;21.80;99.80;;;;;;4904544;29;20104;-77
2023/05/23 04:21:43;;;;;;;20.15;11.38;;;22.30;99.70;;;;;;4932156;29;20047;-77
2023/05/23 04:24:12;;;;;;;22.20;10.98;;;22.80;98.60;;;;;;4919850;29;20032;-77
2023/05/23 04:26:38;;;;;;;23.80;10.57;;;23.10;96.90;;;;;;4919904;29;20046;-78
2023/05/23 04:29:04;;;;;;;17.38;9.48;;;23.70;95.00;;;;;;4936691;29;20503;-77
2023/05/23 04:31:32;;;;;;;16.20;10.55;;;23.80;94.50;;;;;;4919168;29;20102;-76
2023/05/23 04:33:58;;;;;;;16.33;9.23;;;23.80;93.90;;;;;;4919704;29;20088;-81
2023/05/23 04:36:24;;;;;;;16.60;10.75;;;24.40;93.40;;;;;;4919402;29;20036;-78
2023/05/23 04:38:54;;;;;;;17.77;9.70;;;24.60;93.70;;;;;;4919619;29;20028;-75
2023/05/23 04:41:23;;;;;;;14.68;9.90;;;24.00;93.30;;;;;;4918861;29;20539;-76
2023/05/23 04:44:18;;;;;;;13.85;9.48;;;24.60;92.40;;;;;;4867030;29;20102;-81
2023/05/23 04:46:50;;;;;;;14.70;9.48;;;24.70;91.50;;;;;;4842764;29;20038;-80
2023/05/23 04:49:21;;;;;;;14.50;9.60;;;24.80;91.20;;;;;;4859189;29;20041;-76
2023/05/23 04:51:47;;;;;;;19.67;10.48;;;25.20;91.50;;;;;;4843657;29;20064;-79
2023/05/23 04:54:20;;;;;;;16.48;9.73;;;25.10;92.10;;;;;;4860089;29;20045;-80
2023/05/23 04:56:46;;;;;;;22.08;11.27;;;24.50;91.10;;;;;;4859000;29;20034;-80
2023/05/23 04:59:13;;;;;;;19.33;10.90;;;23.60;92.10;;;;;;4858756;29;20037;-80
2023/05/23 05:01:39;;;;;;;21.13;10.95;;;22.80;92.90;;;;;;4843526;29;20049;-79
2023/05/23 05:04:07;;;;;;;16.48;10.48;;;21.70;94.00;;;;;;4858671;29;20033;-76
2023/05/23 05:06:33;;;;;;;17.60;10.80;;;21.40;95.30;;;;;;4859020;29;20540;-80
2023/05/23 05:08:59;;;;;;;23.92;11.60;;;20.80;99.00;;;;;;4843418;29;20529;-79
2023/05/23 05:11:28;;;;;;;20.10;11.20;;;20.80;99.90;;;;;;4858513;29;20037;-76
2023/05/23 05:13:54;;;;;;;22.90;13.02;;;20.70;99.90;;;;;;4858965;29;20128;-79
2023/05/23 05:16:20;;;;;;;19.73;11.27;;;20.80;99.90;;;;;;4859037;29;20033;-78
2023/05/23 05:18:48;;;;;;;19.38;10.63;;;20.80;99.90;;;;;;4851204;29;20457;-75
2023/05/23 05:21:14;;;;;;;20.48;11.65;;;21.00;99.90;;;;;;4914436;29;20044;-78
2023/05/23 05:23:40;;;;;;;24.92;11.85;;;21.10;99.90;;;;;;4918550;29;20047;-78
2023/05/23 05:26:08;;;;;;;18.05;10.50;;;21.20;99.90;;;;;;4918720;29;20066;-78
2023/05/23 05:28:33;;;;;;;20.45;10.32;;;21.30;99.90;;;;;;4918422;29;20091;-77
2023/05/23 05:31:03;;;;;;;22.13;11.32;;;21.10;99.90;;;;;;4918704;29;20028;-77
2023/05/23 05:33:34;;;;;;;20.95;10.95;;;20.90;99.90;;;;;;4918273;29;20027;-75
2023/05/23 05:36:07;;;;;;;18.85;11.43;;;21.10;99.90;;;;;;4918452;29;20444;-77
2023/05/23 05:38:33;;;;;;;17.33;10.85;;;21.30;99.90;;;;;;4934822;29;20027;-75
2023/05/23 05:41:00;;;;;;;14.90;9.98;;;21.20;99.90;;;;;;4935145;29;20372;-75
2023/05/23 05:43:30;;;;;;;19.45;10.88;;;21.40;99.90;;;;;;4918504;29;20028;-77
2023/05/23 05:45:56;;;;;;;17.27;9.43;;;21.40;99.90;;;;;;4918133;29;20051;-76
2023/05/23 05:48:22;;;;;;;15.98;10.32;;;21.40;99.90;;;;;;4918276;29;20024;-77
2023/05/23 05:50:50;;;;;;;19.30;10.45;;;21.50;99.90;;;;;;4918257;29;20036;-77
2023/05/23 05:53:16;;;;;;;29.02;11.82;;;21.50;99.90;;;;;;4918012;29;20460;-78
2023/05/23 05:55:42;;;;;;;17.92;10.77;;;21.50;99.90;;;;;;4934960;29;20040;-77
2023/05/23 05:58:08;;;;;;;21.70;12.48;;;21.60;99.90;;;;;;4905573;29;20059;-76
2023/05/23 06:00:53;;;;;;;24.98;12.60;;;21.60;99.90;;;;;;4917915;29;20089;-77
2023/05/23 06:03:20;;;;;;;20.58;11.27;;;21.60;99.90;;;;;;4917554;29;20031;-77
2023/05/23 06:05:52;;;;;;;26.05;13.82;;;21.70;99.90;;;;;;4918060;29;20392;-77
2023/05/23 06:08:18;;;;;;;21.20;12.02;;;21.90;99.90;;;;;;4917271;29;20039;-76
2023/05/23 06:10:43;;;;;;;20.88;12.00;;;21.90;99.90;;;;;;4917289;29;20379;-78
2023/05/23 06:13:09;;;;;;;18.33;11.98;;;22.00;99.90;;;;;;4934623;29;20044;-78
2023/05/23 06:15:37;;;;;;;18.50;11.68;;;22.30;99.90;;;;;;4917466;29;20075;-78
2023/05/23 06:18:03;;;;;;;18.67;10.73;;;22.60;99.90;;;;;;4918063;29;20035;-77
2023/05/23 06:20:30;;;;;;;19.95;12.38;;;22.60;99.90;;;;;;4917543;29;20022;-78
2023/05/23 06:22:59;;;;;;;23.17;10.88;;;22.80;99.90;;;;;;4918016;29;20044;-77
2023/05/23 06:25:25;;;;;;;20.00;12.57;;;23.10;99.90;;;;;;4917669;29;20027;-77
2023/05/23 06:27:51;;;;;;;27.15;11.75;;;23.30;99.90;;;;;;4934924;29;20118;-78
2023/05/23 06:30:17;;;;;;;18.52;10.90;;;23.20;99.90;;;;;;4917485;29;20127;-78
2023/05/23 06:32:44;;;;;;;15.70;8.85;;;23.30;99.90;;;;;;4934520;29;20031;-77
2023/05/23 06:35:10;;;;;;;18.45;9.90;;;23.40;99.90;;;;;;4917684;29;20028;-77
2023/05/23 06:37:36;;;;;;;14.30;9.00;;;23.10;99.90;;;;;;4929852;29;20051;-77
2023/05/23 06:40:02;;;;;;;16.75;10.10;;;22.80;99.90;;;;;;4917615;29;20067;-77
2023/05/23 06:42:28;;;;;;;19.10;10.20;;;23.00;99.90;;;;;;4917331;29;20040;-77
2023/05/23 06:45:02;;;;;;;18.48;9.90;;;23.20;99.90;;;;;;4917616;29;20072;-77
2023/05/23 06:47:30;;;;;;;18.75;9.55;;;23.30;99.90;;;;;;4928605;29;20432;-77
2023/05/23 06:49:56;;;;;;;18.13;11.05;;;23.50;99.30;;;;;;4894344;29;20040;-77
2023/05/23 06:52:22;;;;;;;16.08;9.68;;;22.90;98.70;;;;;;4917155;29;20122;-78
2023/05/23 06:54:49;;;;;;;17.58;9.82;;;22.90;99.20;;;;;;4917331;29;20071;-78
2023/05/23 06:57:15;;;;;;;19.77;10.13;;;23.20;99.90;;;;;;4934359;29;20387;-77
2023/05/23 06:59:41;;;;;;;16.08;10.43;;;23.30;98.80;;;;;;4917392;29;20038;-76
2023/05/23 07:02:07;;;;;;;13.63;9.85;;;23.40;99.90;;;;;;4917471;29;20403;-77
2023/05/23 07:04:34;;;;;;;15.10;9.75;;;23.60;99.90;;;;;;4912655;29;20054;-77
2023/05/23 07:07:07;;;;;;;20.63;9.77;;;22.80;99.00;;;;;;4917148;29;20039;-78
2023/05/23 07:09:33;;;;;;;16.77;9.50;;;23.30;99.90;;;;;;4917164;29;20497;-78
2023/05/23 07:12:07;;;;;;;19.05;10.80;;;23.60;99.90;;;;;;4916891;29;20052;-78
2023/05/23 07:14:37;;;;;;;16.58;10.77;;;23.30;99.90;;;;;;4916976;29;20480;-76
2023/05/23 07:17:05;;;;;;;16.30;10.43;;;23.50;99.90;;;;;;4917104;29;20500;-77
2023/05/23 07:19:31;;;;;;;19.83;10.85;;;23.20;98.90;;;;;;4917323;29;20035;-76
2023/05/23 07:21:57;;;;;;;18.23;9.70;;;23.40;98.80;;;;;;4916762;29;20043;-77
2023/05/23 07:24:23;;;;;;;23.75;10.23;;;23.70;99.90;;;;;;4916602;29;20032;-76
2023/05/23 07:26:49;;;;;;;16.92;11.02;;;24.00;98.30;;;;;;4916785;29;20035;-77
2023/05/23 07:29:15;;;;;;;17.63;10.70;;;24.20;96.40;;;;;;4917301;29;20403;-75
2023/05/23 07:31:43;;;;;;;21.60;12.63;;;24.70;98.00;;;;;;4916693;29;20082;-77
2023/05/23 07:34:11;;;;;;;18.42;11.02;;;24.90;95.10;;;;;;4916682;29;20038;-76
2023/05/23 07:36:48;;;;;;;18.90;10.52;;;24.60;93.10;;;;;;4931754;29;20061;-76
2023/05/23 07:39:20;;;;;;;18.20;9.57;;;24.30;92.50;;;;;;4916964;29;20174;-76
2023/05/23 07:41:47;;;;;;;19.80;11.45;;;24.20;92.80;;;;;;4932826;29;20047;-76
2023/05/23 07:44:13;;;;;;;17.35;9.55;;;23.50;93.40;;;;;;4916195;29;20535;-77
2023/05/23 07:46:39;;;;;;;17.73;9.18;;;23.90;93.40;;;;;;4934053;29;20035;-77
2023/05/23 07:49:05;;;;;;;14.70;8.60;;;24.10;94.30;;;;;;4917923;29;20031;-77
2023/05/23 07:51:32;;;;;;;17.90;10.07;;;24.10;93.90;;;;;;4937255;29;20043;-78
2023/05/23 07:53:58;;;;;;;19.42;10.32;;;24.50;94.60;;;;;;4920250;29;20483;-77
2023/05/23 07:56:25;;;;;;;13.82;7.47;;;24.90;95.30;;;;;;4919759;29;20032;-77
2023/05/23 07:58:51;;;;;;;12.93;7.03;;;24.60;93.00;;;;;;4937113;29;20020;-76
2023/05/23 08:01:17;;;;;;;9.70;5.80;;;24.50;92.80;;;;;;4936851;29;20019;-77
2023/05/23 08:04:12;;;;;;;9.55;6.00;;;24.40;92.70;;;;;;4881211;29;20102;-75
2023/05/23 08:06:46;;;;;;;10.27;5.50;;;24.20;92.20;;;;;;4878820;29;20379;-76
2023/05/23 08:09:12;;;;;;;13.32;6.70;;;24.60;91.90;;;;;;4879068;29;20401;-77
2023/05/23 08:11:43;;;;;;;8.07;4.87;;;24.90;92.40;;;;;;4878727;29;20060;-77
2023/05/23 08:14:10;;;;;;;16.63;6.53;;;25.40;92.70;;;;;;4880225;29;20072;-76
2023/05/23 08:16:36;;;;;;;8.57;4.40;;;25.50;91.60;;;;;;4887201;29;20093;-77
2023/05/23 08:19:04;;;;;;;9.30;5.70;;;25.30;90.60;;;;;;4864764;29;20425;-77
2023/05/23 08:21:30;;;;;;;7.97;5.20;;;25.00;92.50;;;;;;4878109;29;20052;-75
2023/05/23 08:23:57;;;;;;;10.18;6.28;;;25.30;91.50;;;;;;4882466;29;20037;-76
2023/05/23 08:26:23;;;;;;;9.90;6.00;;;25.00;91.90;;;;;;4888865;29;20033;-75
2023/05/23 08:28:50;;;;;;;11.50;6.03;;;25.10;91.00;;;;;;4873360;29;20453;-76
2023/05/23 08:31:16;;;;;;;9.68;4.32;;;25.00;91.20;;;;;;4875742;29;20031;-77
2023/05/23 08:33:43;;;;;;;8.00;4.68;;;25.00;90.50;;;;;;4868080;29;20617;-76
2023/05/23 08:36:09;;;;;;;9.02;5.05;;;25.00;90.80;;;;;;4862380;29;20041;-76
2023/05/23 08:38:35;;;;;;;10.32;5.28;;;25.60;92.90;;;;;;4878115;29;20446;-77
2023/05/23 08:41:23;;;;;;;9.18;4.63;;;25.70;91.30;;;;;;4924833;29;20065;-76
2023/05/23 08:43:53;;;;;;;9.27;4.78;;;25.50;89.80;;;;;;4919503;29;20476;-76
2023/05/23 08:46:25;;;;;;;;;;;25.90;90.70;;;;;;4921012;29;20043;-76
2023/05/23 08:48:53;;;;;;;5.13;3.08;;;26.30;91.10;;;;;;4934976;29;19915;-76
2023/05/23 08:51:22;;;;;;;8.20;3.67;;;26.10;86.60;;;;;;4936298;29;20115;-76
2023/05/23 08:53:49;;;;;;;7.53;3.90;;;26.10;90.00;;;;;;4919391;29;20042;-75
2023/05/23 08:56:15;;;;;;;5.97;4.35;;;25.90;87.80;;;;;;4918993;29;20455;-76
2023/05/23 08:58:46;;;;;;;10.13;5.03;;;25.90;91.70;;;;;;4919433;29;20123;-78
2023/05/23 09:01:13;;;;;;;3.85;3.13;;;26.10;91.70;;;;;;4918259;29;20038;-78
2023/05/23 09:03:43;;;;;;;6.10;3.08;;;25.90;87.00;;;;;;4918990;29;20074;-77
2023/05/23 09:06:24;;;;;;;8.52;4.38;;;26.20;88.70;;;;;;4934744;29;20441;-78
2023/05/23 09:08:50;;;;;;;7.32;4.70;;;26.60;91.80;;;;;;4918852;29;20090;-78
2023/05/23 09:11:20;;;;;;;5.88;4.07;;;26.70;92.10;;;;;;4914658;29;20040;-75
2023/05/23 09:13:48;;;;;;;7.35;4.38;;;26.50;89.50;;;;;;4913870;29;20036;-78
2023/05/23 09:16:18;;;;;;;6.05;3.83;;;26.10;91.40;;;;;;4918686;29;20040;-78
2023/05/23 09:18:55;;;;;;;8.02;4.45;;;25.90;90.60;;;;;;4918984;29;20023;-77
2023/05/23 09:21:23;;;;;;;8.38;4.25;;;26.30;91.90;;;;;;4918680;29;20403;-78
2023/05/23 09:24:15;;;;;;;11.70;5.00;;;26.30;91.80;;;;;;4919368;29;20131;-77
2023/05/23 09:26:45;;;;;;;8.85;5.20;;;26.20;90.90;;;;;;4918197;29;20114;-78
2023/05/23 09:29:11;;;;;;;7.68;4.57;;;26.20;91.40;;;;;;4935774;29;20031;-75
2023/05/23 09:31:36;;;;;;;7.97;5.07;;;26.40;91.40;;;;;;4918005;29;20040;-75
2023/05/23 09:34:03;;;;;;;7.90;4.85;;;26.50;91.70;;;;;;4917170;29;20031;-78
2023/05/23 09:36:31;;;;;;;10.80;5.38;;;26.00;91.20;;;;;;4918532;29;20403;-76
2023/05/23 09:39:03;;;;;;;8.77;4.75;;;26.10;91.10;;;;;;4918141;29;20043;-75
2023/05/23 09:41:32;;;;;;;11.43;5.20;;;26.50;91.70;;;;;;4918245;29;20067;-75
2023/05/23 09:43:58;;;;;;;7.25;4.85;;;26.50;91.00;;;;;;4935152;29;20032;-75
2023/05/23 09:46:29;;;;;;;8.07;4.50;;;26.70;90.60;;;;;;4917896;29;20428;-75
2023/05/23 09:48:55;;;;;;;10.88;4.53;;;26.90;91.30;;;;;;4928675;29;20122;-77
2023/05/23 09:51:22;;;;;;;6.82;3.88;;;26.80;91.90;;;;;;4934447;29;20111;-76
2023/05/23 09:53:50;;;;;;;5.93;3.47;;;26.80;91.80;;;;;;4918051;29;20028;-76
2023/05/23 09:56:17;;;;;;;5.78;4.00;;;26.60;89.80;;;;;;4933606;29;20038;-78
2023/05/23 09:58:47;;;;;;;7.03;3.53;;;26.40;90.20;;;;;;4935079;29;20063;-76
2023/05/23 10:01:14;;;;;;;9.40;4.00;;;26.50;90.30;;;;;;4934855;29;20040;-78
2023/05/23 10:03:47;;;;;;;6.30;3.72;;;26.60;87.60;;;;;;4934830;29;20028;-76
2023/05/23 10:06:36;;;;;;;7.63;3.17;;;26.70;85.40;;;;;;4934769;29;20028;-76
2023/05/23 10:09:08;;;;;;;4.25;3.30;;;26.90;86.20;;;;;;4935480;29;20031;-77
2023/05/23 10:11:34;;;;;;;5.88;3.10;;;26.90;85.90;;;;;;4933606;29;20126;-76
2023/05/23 10:14:10;;;;;;;5.43;3.13;;;27.00;86.00;;;;;;4935441;29;20123;-76
2023/05/23 10:16:56;;;;;;;4.38;2.95;;;26.70;86.80;;;;;;4934189;29;20027;-75
2023/05/23 10:19:42;;;;;;;5.30;3.38;;;27.00;86.80;;;;;;4936378;29;20517;-76
2023/05/23 10:22:11;;;;;;;6.35;2.90;;;26.80;84.30;;;;;;4937158;29;20031;-76
2023/05/23 10:24:37;;;;;;;4.93;2.83;;;26.70;88.30;;;;;;4933178;29;20027;-78
2023/05/23 10:27:03;;;;;;;3.35;2.55;;;26.70;84.20;;;;;;4934624;29;20500;-76
2023/05/23 10:29:32;;;;;;;6.43;3.10;;;26.80;85.10;;;;;;4934120;29;20103;-76
2023/05/23 10:32:01;;;;;;;3.83;2.95;;;27.10;88.40;;;;;;4934561;29;20031;-76
2023/05/23 10:34:31;;;;;;;5.00;3.00;;;27.20;88.50;;;;;;4935452;29;20031;-77
2023/05/23 10:37:06;;;;;;;4.22;3.20;;;26.90;87.90;;;;;;4936427;29;20114;-77
2023/05/23 10:39:59;;;;;;;7.20;3.40;;;26.80;88.30;;;;;;4934599;29;20028;-77
2023/05/23 10:42:55;;;;;;;6.75;3.22;;;26.80;85.90;;;;;;4934393;29;20066;-76
2023/05/23 10:45:23;;;;;;;3.80;2.78;;;26.50;85.50;;;;;;4934093;29;20043;-76
2023/05/23 10:47:51;;;;;;;6.95;3.30;;;26.50;86.80;;;;;;4931334;29;20019;-76
2023/05/23 10:50:33;;;;;;;4.50;2.78;;;26.50;86.90;;;;;;4934137;29;20503;-76
2023/05/23 10:53:02;;;;;;;;;;;26.80;84.10;;;;;;4934551;29;20024;-76
2023/05/23 10:55:32;;;;;;;5.45;3.40;;;26.50;83.20;;;;;;4934655;29;19906;-76
2023/05/23 10:58:22;;;;;;;3.45;2.40;;;26.50;83.20;;;;;;4934235;29;20034;-76
2023/05/23 11:00:54;;;;;;;4.07;2.72;;;26.70;87.00;;;;;;4934497;29;20055;-76
2023/05/23 11:04:03;;;;;;;3.55;2.63;;;27.00;85.80;;;;;;4934642;29;20032;-76
2023/05/23 11:06:37;;;;;;;8.52;4.03;;;27.10;83.20;;;;;;4865975;29;20153;-76
2023/05/23 11:09:06;;;;;;;5.32;2.70;;;27.00;87.30;;;;;;4853787;29;20113;-76
2023/05/23 11:11:50;;;;;;;5.50;2.92;;;26.90;85.80;;;;;;4857934;29;20052;-76
2023/05/23 11:14:17;;;;;;;6.22;2.78;;;26.80;86.20;;;;;;4858297;29;20549;-76
2023/05/23 11:16:45;;;;;;;5.47;2.90;;;27.00;88.80;;;;;;4857001;29;20405;-75
2023/05/23 11:19:21;;;;;;;6.78;2.88;;;26.50;85.40;;;;;;4858351;29;20038;-76
2023/05/23 11:21:58;;;;;;;5.70;3.10;;;26.80;89.40;;;;;;4858194;29;20057;-76
2023/05/23 11:24:48;;;;;;;4.07;2.90;;;26.90;87.30;;;;;;4860099;29;20075;-76
2023/05/23 11:27:14;;;;;;;7.30;3.05;;;27.20;86.30;;;;;;4859982;29;20070;-76
2023/05/23 11:29:40;;;;;;;4.45;2.83;;;27.30;88.50;;;;;;4860787;29;20033;-76
2023/05/23 11:32:12;;;;;;;6.70;2.95;;;27.10;87.00;;;;;;4861460;29;20082;-76
2023/05/23 11:34:39;;;;;;;6.82;3.20;;;27.00;85.10;;;;;;4860917;29;20037;-75
2023/05/23 11:37:05;;;;;;;6.80;3.25;;;26.90;84.80;;;;;;4865622;29;20042;-76
2023/05/23 11:39:31;;;;;;;5.03;2.75;;;26.90;86.90;;;;;;4937878;29;20031;-77
2023/05/23 11:42:03;;;;;;;4.40;2.60;;;26.90;86.40;;;;;;4936666;29;20103;-77
2023/05/23 11:44:29;;;;;;;7.15;2.83;;;26.90;89.80;;;;;;4937802;29;20028;-77
2023/05/23 11:47:02;;;;;;;4.40;3.00;;;27.00;89.40;;;;;;4932396;29;20368;-76
2023/05/23 11:49:29;;;;;;;4.50;2.70;;;26.90;88.20;;;;;;4925760;29;20035;-76
2023/05/23 11:51:56;;;;;;;4.57;3.42;;;26.80;85.90;;;;;;4937653;29;20023;-77
2023/05/23 11:54:23;;;;;;;4.72;2.78;;;26.90;89.10;;;;;;4937415;29;20543;-77
2023/05/23 11:56:49;;;;;;;4.45;3.28;;;27.00;89.00;;;;;;4937521;29;20472;-76
2023/05/23 11:59:15;;;;;;;6.97;3.03;;;26.90;90.90;;;;;;4937355;29;20365;-78
2023/05/23 12:01:42;;;;;;;5.25;2.97;;;26.90;89.40;;;;;;4937044;29;20063;-76
2023/05/23 12:04:12;;;;;;;4.43;2.53;;;27.10;89.10;;;;;;4935840;29;20387;-74
2023/05/23 12:06:39;;;;;;;4.72;2.97;;;27.10;86.80;;;;;;4917743;29;20031;-76
2023/05/23 12:09:06;;;;;;;6.53;2.97;;;27.10;86.70;;;;;;4922759;29;20561;-76
2023/05/23 12:11:33;;;;;;;5.82;2.92;;;27.00;88.20;;;;;;4931101;29;20508;-77
2023/05/23 12:14:01;;;;;;;6.80;3.03;;;26.90;90.20;;;;;;4925090;29;20040;-76
2023/05/23 12:16:31;;;;;;;6.18;3.40;;;26.80;87.70;;;;;;4933808;29;20052;-77
2023/05/23 12:18:57;;;;;;;4.30;2.53;;;26.90;86.80;;;;;;4937197;29;20039;-77
2023/05/23 12:21:39;;;;;;;3.75;2.50;;;27.00;82.50;;;;;;4932188;29;20028;-77
2023/05/23 12:24:18;;;;;;;8.18;3.28;;;27.00;84.30;;;;;;4926718;29;20028;-77
2023/05/23 12:26:52;;;;;;;4.20;2.60;;;27.10;84.70;;;;;;4936481;29;20019;-77
2023/05/23 12:29:21;;;;;;;4.70;2.58;;;26.90;83.80;;;;;;4932640;29;20032;-77
2023/05/23 12:31:50;;;;;;;4.53;2.53;;;27.00;83.40;;;;;;4936779;29;20082;-77
2023/05/23 12:34:16;;;;;;;4.72;2.58;;;26.90;83.70;;;;;;4935508;29;20489;-76
2023/05/23 12:36:43;;;;;;;6.13;2.83;;;27.00;86.10;;;;;;4935868;29;20416;-75
2023/05/23 12:39:09;;;;;;;4.68;2.97;;;27.10;90.10;;;;;;4928865;29;20538;-76
2023/05/23 12:41:35;;;;;;;4.07;2.50;;;27.20;99.10;;;;;;4936343;29;20031;-75
2023/05/23 12:44:01;;;;;;;6.40;3.10;;;27.40;90.90;;;;;;4936831;29;20388;-76